Terminal Aerodrome Forecast
Issued by NWS

Current Version | Previous Version | Text Only | Print | Product List | Glossary On
Versions: 1 2 3 4 5 6 7 8 9 10 11 12 13 14
000
FTUS41 KBTV 231403 AAA
TAFMSS
TAF AMD
KMSS 231403Z 2314/2412 22010KT 4SM BR OVC008
      TEMPO 2314/2318 1/4SM FG OVC003
     FM231800 21008KT P6SM OVC015
     FM240000 12006KT P6SM OVC035
     FM240800 10012KT 5SM -RA OVC015=

USA.gov is the U.S. government's official web portal to all federal, state and local government web resources and services.